createdAt,value
2022-10-28T00:02:24.393Z,100.00
2022-10-28T00:07:30.773Z,100.00
2022-10-28T00:12:36.518Z,100.00
2022-10-28T00:17:40.468Z,100.00
2022-10-28T00:22:45.858Z,100.00
2022-10-28T00:27:49.740Z,100.00
2022-10-28T00:32:54.043Z,100.00
2022-10-28T00:37:59.692Z,100.00
2022-10-28T00:43:03.798Z,100.00
2022-10-28T00:48:08.008Z,100.00
2022-10-28T00:53:17.195Z,100.00
2022-10-28T00:58:24.260Z,100.00
2022-10-28T01:03:28.194Z,100.00
2022-10-28T01:08:34.038Z,100.00
2022-10-28T01:13:48.072Z,100.00
2022-10-28T01:19:07.685Z,100.00
2022-10-28T01:24:30.227Z,100.00
2022-10-28T01:30:07.298Z,100.00
2022-10-28T01:35:20.279Z,100.00
2022-10-28T01:40:33.241Z,100.00
2022-10-28T01:45:43.733Z,100.00
2022-10-28T01:50:57.968Z,100.00
2022-10-28T01:56:07.425Z,100.00
2022-10-28T02:01:12.513Z,100.00
2022-10-28T02:06:21.831Z,100.00
2022-10-28T02:11:36.399Z,100.00
2022-10-28T02:16:48.356Z,100.00
2022-10-28T02:22:05.718Z,100.00
2022-10-28T02:27:17.599Z,100.00
2022-10-28T02:32:26.132Z,100.00
2022-10-28T02:37:34.881Z,100.00
2022-10-28T02:42:46.785Z,100.00
2022-10-28T02:47:56.675Z,100.00
2022-10-28T02:53:06.707Z,100.00
2022-10-28T02:58:11.698Z,100.00
2022-10-28T03:03:15.738Z,100.00
2022-10-28T03:08:21.072Z,100.00
2022-10-28T03:13:25.130Z,100.00
2022-10-28T03:18:31.938Z,100.00
2022-10-28T03:23:37.139Z,100.00
2022-10-28T03:28:41.201Z,100.00
2022-10-28T03:33:45.594Z,100.00
2022-10-28T03:38:50.819Z,100.00
2022-10-28T03:43:57.034Z,100.00
2022-10-28T03:49:00.866Z,100.00
2022-10-28T03:54:06.377Z,100.00
2022-10-28T03:59:14.065Z,100.00
2022-10-28T04:04:29.996Z,100.00
2022-10-28T04:09:36.225Z,100.00
2022-10-28T04:14:40.496Z,100.00
2022-10-28T04:19:44.682Z,100.00
2022-10-28T04:24:50.408Z,100.00
2022-10-28T04:29:54.252Z,100.00
2022-10-28T04:34:58.073Z,100.00
2022-10-28T04:40:04.298Z,100.00
2022-10-28T04:45:09.934Z,100.00
2022-10-28T04:50:13.785Z,100.00
2022-10-28T04:55:19.307Z,100.00
2022-10-28T05:00:23.242Z,100.00
2022-10-28T05:05:27.141Z,100.00
2022-10-28T05:10:32.656Z,100.00
2022-10-28T05:15:36.569Z,100.00
2022-10-28T05:20:40.524Z,100.00
2022-10-28T05:25:45.912Z,100.00
2022-10-28T05:30:49.960Z,100.00
2022-10-28T05:35:54.015Z,100.00
2022-10-28T05:40:59.256Z,100.00
2022-10-28T05:46:03.939Z,100.00
2022-10-28T05:51:07.852Z,100.00
2022-10-28T05:56:13.162Z,100.00
2022-10-28T06:01:17.377Z,100.00
2022-10-28T06:06:21.350Z,100.00
2022-10-28T06:11:25.053Z,100.00
2022-10-28T06:16:29.197Z,100.00
2022-10-28T06:21:33.208Z,100.00
2022-10-28T06:26:38.491Z,100.00
2022-10-28T06:31:42.962Z,100.00
2022-10-28T06:36:47.055Z,100.00
2022-10-28T06:41:52.539Z,100.00
2022-10-28T06:46:57.952Z,100.00
2022-10-28T06:52:02.004Z,100.00
2022-10-28T06:57:07.326Z,100.00
2022-10-28T07:02:12.244Z,100.00
2022-10-28T07:07:16.368Z,100.00
2022-10-28T07:12:22.006Z,100.00
2022-10-28T07:17:26.116Z,100.00
2022-10-28T07:22:29.990Z,100.00
2022-10-28T07:27:35.335Z,100.00
2022-10-28T07:32:39.323Z,100.00
2022-10-28T07:37:43.331Z,100.00
2022-10-28T07:42:48.728Z,100.00
2022-10-28T07:47:53.238Z,100.00
2022-10-28T07:52:57.335Z,100.00
2022-10-28T07:58:02.717Z,100.00
2022-10-28T08:03:06.878Z,100.00
2022-10-28T08:08:11.029Z,100.00
2022-10-28T08:13:16.323Z,100.00
2022-10-28T08:18:20.522Z,100.00
2022-10-28T08:23:24.416Z,100.00
2022-10-28T08:28:30.055Z,100.00
2022-10-28T08:33:33.947Z,100.00
2022-10-28T08:38:41.642Z,100.00
2022-10-28T08:44:03.257Z,100.00
2022-10-28T08:49:19.813Z,99.20
2022-10-28T08:54:28.706Z,99.09
2022-10-28T08:59:39.043Z,100.00
2022-10-28T09:04:44.733Z,97.47
2022-10-28T09:09:51.333Z,100.00
2022-10-28T09:15:14.328Z,95.98
2022-10-28T09:20:21.889Z,95.08
2022-10-28T09:25:33.530Z,96.88
2022-10-28T09:30:49.502Z,91.48
2022-10-28T09:35:54.870Z,91.10
2022-10-28T09:41:03.485Z,96.24
2022-10-28T09:46:13.492Z,92.84
2022-10-28T09:51:28.328Z,95.29
2022-10-28T09:56:35.800Z,95.98
2022-10-28T10:01:43.727Z,91.85
2022-10-28T10:06:50.713Z,88.47
2022-10-28T10:11:57.290Z,89.74
2022-10-28T10:17:06.564Z,91.85
2022-10-28T10:22:29.630Z,90.62
2022-10-28T10:27:33.656Z,85.88
2022-10-28T10:32:38.983Z,85.32
2022-10-28T10:37:45.411Z,84.33
2022-10-28T10:43:09.505Z,88.25
2022-10-28T10:48:18.785Z,86.75
2022-10-28T10:53:25.741Z,85.89
2022-10-28T10:58:32.259Z,87.33
2022-10-28T11:03:40.522Z,87.76
2022-10-28T11:08:47.511Z,87.84
2022-10-28T11:14:08.697Z,85.75
2022-10-28T11:19:22.348Z,82.57
2022-10-28T11:24:41.322Z,83.50
2022-10-28T11:29:46.956Z,86.81
2022-10-28T11:35:06.645Z,84.27
2022-10-28T11:40:30.599Z,82.47
2022-10-28T11:45:39.938Z,73.05
2022-10-28T11:51:02.075Z,72.08
2022-10-28T11:56:23.851Z,70.32
2022-10-28T12:01:41.476Z,71.34
2022-10-28T12:07:02.321Z,69.59
2022-10-28T12:12:16.888Z,71.43
2022-10-28T12:17:27.707Z,70.40
2022-10-28T12:22:40.555Z,70.71
2022-10-28T12:27:48.845Z,71.83
2022-10-28T12:32:57.843Z,72.80
2022-10-28T12:38:10.200Z,75.25
2022-10-28T12:43:19.977Z,81.29
2022-10-28T12:48:32.698Z,81.29
2022-10-28T12:53:44.124Z,81.53
2022-10-28T12:58:56.294Z,86.32
2022-10-28T13:04:00.487Z,86.18
2022-10-28T13:09:33.322Z,88.25
2022-10-28T13:15:06.249Z,87.81
2022-10-28T13:20:20.804Z,82.08
2022-10-28T13:25:41.652Z,82.35
2022-10-28T13:30:57.702Z,82.10
2022-10-28T13:36:19.773Z,83.44
2022-10-28T13:41:40.868Z,85.11
2022-10-28T13:47:27.738Z,86.85
2022-10-28T13:52:31.780Z,88.98
2022-10-28T13:57:39.058Z,92.09
2022-10-28T14:02:47.690Z,97.12
2022-10-28T14:07:56.006Z,100.00
2022-10-28T14:13:04.557Z,100.00
2022-10-28T14:18:42.516Z,100.00
2022-10-28T14:24:34.061Z,100.00
2022-10-28T14:29:45.581Z,100.00
2022-10-28T14:34:50.469Z,100.00
2022-10-28T14:40:07.145Z,100.00
2022-10-28T14:45:26.621Z,100.00
2022-10-28T14:50:39.486Z,100.00
2022-10-28T14:55:48.547Z,100.00
2022-10-28T15:01:05.942Z,100.00
2022-10-28T15:06:32.661Z,100.00
2022-10-28T15:11:36.655Z,100.00
2022-10-28T15:16:49.458Z,100.00
2022-10-28T15:22:04.498Z,100.00
2022-10-28T15:27:12.698Z,100.00
2022-10-28T15:32:30.773Z,100.00
2022-10-28T15:37:37.460Z,100.00
2022-10-28T15:42:45.716Z,100.00
2022-10-28T15:47:51.133Z,100.00
2022-10-28T15:52:57.482Z,100.00
2022-10-28T15:58:04.117Z,100.00
2022-10-28T16:03:26.865Z,100.00
2022-10-28T16:08:32.440Z,100.00
2022-10-28T16:13:38.604Z,100.00
2022-10-28T16:18:47.332Z,100.00
2022-10-28T16:23:56.407Z,100.00
2022-10-28T16:29:00.331Z,100.00
2022-10-28T16:34:05.917Z,100.00
2022-10-28T16:39:13.105Z,100.00
2022-10-28T16:44:19.326Z,100.00
2022-10-28T16:49:24.774Z,100.00
2022-10-28T16:54:28.717Z,100.00
2022-10-28T16:59:32.524Z,100.00
2022-10-28T17:04:37.612Z,100.00
2022-10-28T17:09:41.498Z,100.00
2022-10-28T17:14:45.719Z,100.00
2022-10-28T17:19:50.780Z,100.00
2022-10-28T17:24:54.958Z,100.00
2022-10-28T17:29:59.037Z,100.00
2022-10-28T17:35:04.990Z,100.00
2022-10-28T17:40:11.122Z,100.00
2022-10-28T17:45:18.003Z,100.00
2022-10-28T17:50:26.335Z,100.00
2022-10-28T17:55:30.407Z,100.00
2022-10-28T18:00:34.220Z,100.00
2022-10-28T18:05:39.477Z,100.00
2022-10-28T18:10:52.416Z,100.00
2022-10-28T18:15:56.369Z,100.00
2022-10-28T18:21:02.009Z,100.00
2022-10-28T18:26:07.405Z,100.00
2022-10-28T18:31:15.696Z,100.00
2022-10-28T18:36:22.530Z,100.00
2022-10-28T18:41:28.565Z,100.00
2022-10-28T18:46:34.387Z,100.00
2022-10-28T18:51:39.648Z,100.00
2022-10-28T18:56:47.605Z,100.00
2022-10-28T19:01:52.584Z,100.00
2022-10-28T19:06:57.790Z,100.00
2022-10-28T19:12:01.879Z,100.00
2022-10-28T19:17:05.682Z,100.00
2022-10-28T19:22:11.894Z,100.00
2022-10-28T19:27:15.634Z,100.00
2022-10-28T19:32:19.426Z,100.00
2022-10-28T19:37:25.256Z,100.00
2022-10-28T19:42:29.042Z,100.00
2022-10-28T19:47:33.326Z,100.00
2022-10-28T19:52:38.623Z,100.00
2022-10-28T19:57:42.543Z,100.00
2022-10-28T20:02:48.306Z,100.00
2022-10-28T20:07:54.618Z,100.00
2022-10-28T20:12:58.550Z,100.00
2022-10-28T20:18:02.350Z,100.00
2022-10-28T20:23:07.504Z,100.00
2022-10-28T20:28:11.366Z,100.00
2022-10-28T20:33:15.129Z,100.00
2022-10-28T20:38:20.586Z,100.00
2022-10-28T20:43:28.926Z,100.00
2022-10-28T20:48:32.848Z,100.00
2022-10-28T20:53:38.411Z,100.00
2022-10-28T20:58:42.191Z,100.00
2022-10-28T21:03:46.616Z,100.00
2022-10-28T21:08:51.854Z,100.00
2022-10-28T21:13:58.613Z,100.00
2022-10-28T21:19:02.934Z,100.00
2022-10-28T21:24:08.892Z,100.00
2022-10-28T21:29:12.406Z,100.00
2022-10-28T21:34:16.201Z,100.00
2022-10-28T21:39:21.283Z,100.00
2022-10-28T21:44:25.142Z,100.00
2022-10-28T21:49:29.270Z,100.00
2022-10-28T21:54:35.033Z,100.00
2022-10-28T21:59:38.792Z,100.00
2022-10-28T22:04:42.726Z,100.00
2022-10-28T22:09:47.877Z,100.00
2022-10-28T22:14:51.592Z,100.00
2022-10-28T22:19:55.406Z,100.00
2022-10-28T22:25:01.287Z,100.00
2022-10-28T22:30:07.425Z,100.00
2022-10-28T22:35:11.257Z,100.00
2022-10-28T22:40:16.608Z,100.00
2022-10-28T22:45:20.447Z,100.00
2022-10-28T22:50:24.162Z,100.00
2022-10-28T22:55:29.278Z,100.00
2022-10-28T23:00:33.499Z,100.00
2022-10-28T23:05:37.497Z,100.00
2022-10-28T23:10:42.790Z,100.00
2022-10-28T23:15:46.611Z,100.00
2022-10-28T23:20:50.420Z,100.00
2022-10-28T23:25:57.301Z,100.00
2022-10-28T23:31:01.889Z,100.00
2022-10-28T23:36:06.385Z,100.00
2022-10-28T23:41:14.621Z,100.00
2022-10-28T23:46:19.771Z,100.00
2022-10-28T23:51:23.812Z,100.00
2022-10-28T23:56:29.084Z,100.00
